Time;durP1;ratioP1;P1;durP2;ratioP2;P2;SDS_P1;SDS_P2;PMS_P1;PMS_P2;Temp;Humidity;BMP_temperature;BMP_pressure;BME280_temperature;BME280_humidity;BME280_pressure;Samples;Min_cycle;Max_cycle;Signal;HPM_P1;HPM_P2
2023/05/29 00:02:14;;;;;;;8.85;5.15;;;22.40;65.40;;;;;;6244666;23;20005;-71
2023/05/29 00:04:40;;;;;;;8.50;5.25;;;22.30;65.30;;;;;;6245468;23;20016;-71
2023/05/29 00:07:06;;;;;;;10.85;4.90;;;22.30;65.60;;;;;;6245430;23;20087;-72
2023/05/29 00:09:32;;;;;;;8.27;5.40;;;22.20;65.80;;;;;;6245171;23;20007;-71
2023/05/29 00:11:57;;;;;;;9.00;5.68;;;22.00;65.70;;;;;;6245716;23;20481;-72
2023/05/29 00:14:23;;;;;;;7.35;4.82;;;22.00;66.20;;;;;;6245592;23;20004;-71
2023/05/29 00:16:50;;;;;;;8.23;5.18;;;22.00;66.30;;;;;;6245167;23;20008;-71
2023/05/29 00:19:16;;;;;;;6.95;4.57;;;22.10;66.50;;;;;;6245130;23;20087;-71
2023/05/29 00:21:43;;;;;;;7.38;4.85;;;22.00;66.80;;;;;;6245187;23;20019;-70
2023/05/29 00:24:08;;;;;;;7.05;4.40;;;22.00;66.70;;;;;;6245130;23;19998;-71
2023/05/29 00:26:34;;;;;;;9.40;4.90;;;22.00;66.60;;;;;;6245105;23;20027;-72
2023/05/29 00:29:00;;;;;;;7.40;4.68;;;22.10;66.70;;;;;;6218334;23;20157;-71
2023/05/29 00:31:26;;;;;;;7.85;5.13;;;22.10;66.70;;;;;;6245527;23;20004;-71
2023/05/29 00:33:52;;;;;;;8.30;4.88;;;22.10;66.70;;;;;;6245206;23;20079;-72
2023/05/29 00:36:18;;;;;;;8.88;5.10;;;22.10;66.70;;;;;;6245511;23;20422;-72
2023/05/29 00:38:44;;;;;;;6.30;4.47;;;22.10;66.70;;;;;;6245303;23;20279;-72
2023/05/29 00:41:15;;;;;;;8.73;5.10;;;22.10;66.70;;;;;;6244928;23;20000;-71
2023/05/29 00:43:41;;;;;;;10.23;5.38;;;22.00;66.70;;;;;;6245348;23;20311;-71
2023/05/29 00:46:08;;;;;;;10.30;4.45;;;21.90;66.70;;;;;;6245165;23;20102;-71
2023/05/29 00:48:34;;;;;;;7.53;4.40;;;21.80;66.80;;;;;;6245210;23;20381;-71
2023/05/29 00:50:59;;;;;;;7.18;4.53;;;21.70;67.10;;;;;;6245007;23;20045;-71
2023/05/29 00:53:25;;;;;;;7.22;4.57;;;21.70;67.30;;;;;;6246308;23;20440;-71
2023/05/29 00:55:52;;;;;;;6.72;4.63;;;21.70;67.30;;;;;;6245353;23;20054;-69
2023/05/29 00:58:18;;;;;;;8.57;5.10;;;21.70;67.20;;;;;;6245390;23;20011;-70
2023/05/29 01:00:44;;;;;;;9.27;4.82;;;21.70;67.10;;;;;;6245112;23;20036;-72
2023/05/29 01:03:14;;;;;;;5.45;3.75;;;21.60;67.40;;;;;;6244213;23;20004;-72
2023/05/29 01:05:41;;;;;;;6.28;4.40;;;21.60;67.50;;;;;;6244807;23;20000;-71
2023/05/29 01:08:07;;;;;;;7.97;4.57;;;21.60;67.50;;;;;;6244663;23;20044;-71
2023/05/29 01:10:34;;;;;;;9.50;4.60;;;21.50;67.40;;;;;;6244674;23;20005;-70
2023/05/29 01:13:08;;;;;;;8.20;4.63;;;21.50;67.20;;;;;;6244450;23;20004;-72
2023/05/29 01:15:58;;;;;;;7.47;4.35;;;21.40;67.50;;;;;;6244859;23;20001;-72
2023/05/29 01:19:06;;;;;;;8.30;4.60;;;21.40;67.50;;;;;;6244746;23;20074;-72
2023/05/29 01:22:11;;;;;;;7.57;4.25;;;21.50;68.00;;;;;;6225432;23;20066;-72
2023/05/29 01:24:48;;;;;;;8.13;4.35;;;21.40;67.70;;;;;;6192216;23;20035;-71
2023/05/29 01:27:18;;;;;;;10.10;4.70;;;21.40;67.60;;;;;;6245282;23;20272;-72
2023/05/29 01:29:47;;;;;;;8.05;4.80;;;21.40;67.40;;;;;;6245092;23;20030;-70
2023/05/29 01:32:12;;;;;;;6.72;4.75;;;21.40;67.40;;;;;;6244355;23;20001;-71
2023/05/29 01:34:38;;;;;;;7.95;4.50;;;21.30;67.50;;;;;;6244870;23;20490;-71
2023/05/29 01:37:04;;;;;;;8.38;4.85;;;21.30;67.70;;;;;;6244666;23;20449;-71
2023/05/29 01:39:31;;;;;;;8.75;4.88;;;21.40;67.80;;;;;;6244615;23;20089;-71
2023/05/29 01:41:58;;;;;;;6.68;4.85;;;21.40;67.60;;;;;;6244542;23;20358;-71
2023/05/29 01:44:24;;;;;;;7.65;4.95;;;21.40;67.80;;;;;;6244654;23;20007;-72
2023/05/29 01:46:50;;;;;;;9.23;5.00;;;21.30;67.60;;;;;;6217437;23;20003;-71
2023/05/29 01:49:16;;;;;;;6.32;4.45;;;21.30;67.70;;;;;;6244927;23;20043;-71
2023/05/29 01:51:43;;;;;;;9.48;5.35;;;21.20;68.00;;;;;;6217683;23;20009;-70
2023/05/29 01:54:09;;;;;;;7.28;4.88;;;21.20;68.00;;;;;;6244140;23;20024;-70
2023/05/29 01:56:36;;;;;;;8.88;4.43;;;21.20;68.10;;;;;;6244693;23;20000;-70
2023/05/29 01:59:03;;;;;;;7.03;4.90;;;21.20;68.20;;;;;;6244338;23;20024;-70
2023/05/29 02:01:29;;;;;;;7.07;4.70;;;21.20;68.20;;;;;;6244742;23;20027;-71
2023/05/29 02:03:55;;;;;;;7.70;4.40;;;21.20;68.10;;;;;;6244814;23;20099;-71
2023/05/29 02:06:21;;;;;;;11.07;5.07;;;21.20;68.30;;;;;;6244815;23;20000;-71
2023/05/29 02:08:47;;;;;;;9.07;4.60;;;21.20;68.30;;;;;;6217628;23;20092;-72
2023/05/29 02:11:13;;;;;;;9.88;4.72;;;21.10;68.20;;;;;;6244463;23;20431;-70
2023/05/29 02:13:38;;;;;;;7.85;4.55;;;21.10;68.30;;;;;;6244686;23;20007;-70
2023/05/29 02:16:05;;;;;;;8.60;5.07;;;21.10;68.30;;;;;;6244710;23;20008;-72
2023/05/29 02:18:31;;;;;;;13.27;5.15;;;21.00;68.50;;;;;;6244844;23;20000;-72
2023/05/29 02:20:57;;;;;;;10.88;4.78;;;21.00;68.50;;;;;;6244220;23;20123;-69
2023/05/29 02:23:22;;;;;;;8.80;5.18;;;21.00;68.50;;;;;;6244025;23;20285;-71
2023/05/29 02:25:48;;;;;;;8.38;4.95;;;21.10;68.60;;;;;;6245852;23;20040;-71
2023/05/29 02:28:14;;;;;;;7.65;4.93;;;21.10;68.80;;;;;;6246082;23;20004;-70
2023/05/29 02:30:40;;;;;;;7.63;4.80;;;21.00;68.50;;;;;;6246314;23;20402;-71
2023/05/29 02:33:08;;;;;;;7.30;4.82;;;21.00;68.70;;;;;;6246438;23;20096;-70
2023/05/29 02:35:34;;;;;;;12.18;5.15;;;21.00;69.20;;;;;;6246463;23;19996;-70
2023/05/29 02:38:00;;;;;;;8.10;4.47;;;21.00;68.70;;;;;;6246413;23;20030;-71
2023/05/29 02:40:26;;;;;;;6.70;4.32;;;21.10;68.70;;;;;;6246323;23;20016;-70
2023/05/29 02:42:51;;;;;;;8.43;4.28;;;21.00;68.40;;;;;;6245839;23;20071;-70
2023/05/29 02:45:17;;;;;;;10.20;5.00;;;21.10;68.60;;;;;;6246196;23;20395;-70
2023/05/29 02:47:43;;;;;;;7.15;4.95;;;21.00;68.50;;;;;;6246435;23;20441;-70
2023/05/29 02:50:10;;;;;;;9.95;4.80;;;21.10;68.80;;;;;;6246078;23;20000;-70
2023/05/29 02:52:39;;;;;;;9.93;5.05;;;21.10;69.00;;;;;;6246035;23;19997;-70
2023/05/29 02:55:06;;;;;;;9.90;5.45;;;21.00;69.20;;;;;;6246624;23;20366;-71
2023/05/29 02:57:32;;;;;;;12.50;5.13;;;21.10;69.10;;;;;;6246110;23;20000;-71
2023/05/29 02:59:58;;;;;;;7.90;5.57;;;21.00;68.90;;;;;;6246111;23;20015;-71
2023/05/29 03:02:23;;;;;;;6.90;5.03;;;20.90;69.10;;;;;;6219178;23;20004;-71
2023/05/29 03:04:50;;;;;;;9.63;5.15;;;20.90;69.20;;;;;;6245537;23;20015;-71
2023/05/29 03:07:16;;;;;;;8.00;5.32;;;20.90;69.30;;;;;;6246210;23;20071;-72
2023/05/29 03:09:42;;;;;;;7.57;5.13;;;20.80;69.50;;;;;;6246051;23;20078;-70
2023/05/29 03:12:08;;;;;;;8.25;5.30;;;20.70;69.40;;;;;;6245875;23;19997;-73
2023/05/29 03:14:35;;;;;;;7.40;5.28;;;20.70;69.90;;;;;;6246072;23;20015;-72
2023/05/29 03:17:05;;;;;;;7.63;4.95;;;20.60;69.70;;;;;;6246006;23;20046;-71
2023/05/29 03:19:31;;;;;;;8.32;5.38;;;20.60;69.60;;;;;;6246080;23;20445;-71
2023/05/29 03:21:56;;;;;;;10.68;5.45;;;20.60;69.50;;;;;;6246430;23;20000;-71
2023/05/29 03:24:23;;;;;;;8.80;5.30;;;20.70;69.70;;;;;;6246183;23;20412;-71
2023/05/29 03:26:49;;;;;;;8.75;5.60;;;20.70;69.70;;;;;;6260049;23;20000;-71
2023/05/29 03:29:16;;;;;;;10.80;5.18;;;20.70;69.80;;;;;;6273646;22;19988;-71
2023/05/29 03:31:42;;;;;;;7.55;5.38;;;20.60;69.50;;;;;;6248149;23;20000;-71
2023/05/29 03:34:07;;;;;;;7.85;5.10;;;20.60;69.90;;;;;;6246184;23;20010;-71
2023/05/29 03:36:36;;;;;;;9.82;5.15;;;20.60;70.00;;;;;;6245543;22;20004;-73
2023/05/29 03:39:02;;;;;;;10.55;5.47;;;20.60;70.00;;;;;;6246340;23;20004;-70
2023/05/29 03:41:28;;;;;;;11.98;5.13;;;20.60;69.90;;;;;;6245707;23;20437;-71
2023/05/29 03:43:53;;;;;;;8.20;4.97;;;20.50;70.10;;;;;;6245569;23;19996;-72
2023/05/29 03:46:19;;;;;;;9.82;4.85;;;20.50;69.90;;;;;;6245677;23;20043;-71
2023/05/29 03:48:45;;;;;;;7.45;5.45;;;20.50;70.20;;;;;;6245468;23;20365;-70
2023/05/29 03:51:11;;;;;;;7.75;5.28;;;20.50;70.20;;;;;;6245386;23;20327;-71
2023/05/29 03:53:37;;;;;;;9.85;5.38;;;20.50;70.10;;;;;;6218983;23;20019;-72
2023/05/29 03:56:02;;;;;;;11.75;5.47;;;20.50;70.20;;;;;;6245859;23;20000;-72
2023/05/29 03:58:28;;;;;;;8.02;4.80;;;20.50;70.10;;;;;;6245639;23;20433;-71
2023/05/29 04:00:54;;;;;;;12.15;5.40;;;20.50;70.10;;;;;;6245473;23;20008;-71
2023/05/29 04:03:20;;;;;;;9.43;5.47;;;20.60;70.10;;;;;;6245096;23;20044;-71
2023/05/29 04:05:45;;;;;;;8.60;5.32;;;20.60;69.90;;;;;;6245655;23;20398;-71
2023/05/29 04:08:13;;;;;;;9.45;5.80;;;20.70;70.00;;;;;;6245282;23;19996;-71
2023/05/29 04:10:39;;;;;;;9.48;5.57;;;20.70;69.90;;;;;;6245336;23;20007;-71
2023/05/29 04:13:06;;;;;;;12.23;5.45;;;20.70;70.00;;;;;;6245306;23;20086;-71
2023/05/29 04:15:33;;;;;;;8.27;5.47;;;20.70;69.90;;;;;;6245133;23;20007;-70
2023/05/29 04:17:59;;;;;;;7.80;5.57;;;20.70;69.90;;;;;;6245524;23;20008;-72
2023/05/29 04:20:25;;;;;;;9.80;5.45;;;20.70;69.90;;;;;;6245093;23;20008;-72
2023/05/29 04:22:51;;;;;;;7.60;4.95;;;20.70;69.80;;;;;;6245243;23;19996;-72
2023/05/29 04:25:17;;;;;;;8.68;5.78;;;20.70;69.60;;;;;;6245148;23;20008;-71
2023/05/29 04:27:48;;;;;;;7.05;5.47;;;20.80;69.80;;;;;;6245387;23;20314;-70
2023/05/29 04:30:15;;;;;;;8.25;5.97;;;20.80;69.70;;;;;;6244867;23;20376;-70
2023/05/29 04:32:41;;;;;;;9.13;5.65;;;20.80;69.50;;;;;;6245329;23;19996;-70
2023/05/29 04:35:07;;;;;;;12.35;6.05;;;20.80;69.90;;;;;;6245256;23;20015;-69
2023/05/29 04:37:37;;;;;;;14.25;6.30;;;20.80;69.90;;;;;;6244890;23;19996;-71
2023/05/29 04:40:13;;;;;;;12.00;5.88;;;20.70;69.60;;;;;;6245460;23;20166;-71
2023/05/29 04:42:42;;;;;;;8.50;5.32;;;20.70;70.00;;;;;;6245612;23;20022;-70
2023/05/29 04:45:10;;;;;;;9.10;6.05;;;20.70;70.50;;;;;;6245275;23;20054;-70
2023/05/29 04:47:42;;;;;;;9.13;5.40;;;20.70;70.00;;;;;;6244854;23;20011;-70
2023/05/29 04:50:10;;;;;;;11.23;5.40;;;20.70;69.90;;;;;;6245741;23;20009;-72
2023/05/29 04:52:37;;;;;;;11.93;6.00;;;20.70;70.40;;;;;;6245226;23;20008;-71
2023/05/29 04:55:03;;;;;;;9.77;7.13;;;20.70;70.00;;;;;;6245056;23;19996;-71
2023/05/29 04:57:29;;;;;;;9.70;6.65;;;20.70;70.00;;;;;;6245101;23;20004;-71
2023/05/29 04:59:54;;;;;;;14.35;6.40;;;20.60;70.50;;;;;;6244674;23;20019;-72
2023/05/29 05:02:20;;;;;;;12.57;6.40;;;20.60;70.30;;;;;;6244515;23;19996;-70
2023/05/29 05:04:46;;;;;;;9.18;5.55;;;20.60;70.70;;;;;;6244420;23;20096;-71
2023/05/29 05:07:13;;;;;;;11.43;6.05;;;20.60;70.40;;;;;;6244631;23;20001;-71
2023/05/29 05:09:38;;;;;;;16.77;6.50;;;20.60;70.30;;;;;;6244903;23;20008;-71
2023/05/29 05:12:05;;;;;;;9.32;6.25;;;20.60;70.50;;;;;;6244676;23;20326;-71
2023/05/29 05:14:31;;;;;;;11.40;5.82;;;20.60;70.50;;;;;;6244851;23;20081;-71
2023/05/29 05:16:56;;;;;;;11.45;6.18;;;20.80;70.20;;;;;;6244697;23;20361;-70
2023/05/29 05:19:22;;;;;;;8.80;5.72;;;20.90;69.90;;;;;;6244482;23;20015;-71
2023/05/29 05:21:48;;;;;;;10.02;6.00;;;21.00;69.50;;;;;;6244277;23;20058;-70
2023/05/29 05:24:13;;;;;;;7.00;4.93;;;21.10;69.30;;;;;;6217461;23;20347;-73
2023/05/29 05:26:39;;;;;;;9.57;6.07;;;21.30;69.00;;;;;;6244512;23;20054;-72
2023/05/29 05:29:05;;;;;;;9.65;5.72;;;21.50;68.60;;;;;;6244794;23;20057;-71
2023/05/29 05:31:30;;;;;;;10.63;5.70;;;21.90;68.10;;;;;;6244467;23;20004;-71
2023/05/29 05:33:56;;;;;;;9.07;5.90;;;22.30;67.40;;;;;;6244357;23;20489;-71
2023/05/29 05:36:22;;;;;;;10.10;5.90;;;22.60;66.70;;;;;;6244513;23;20019;-71
2023/05/29 05:38:48;;;;;;;10.48;5.35;;;22.90;66.40;;;;;;6244566;23;19996;-71
2023/05/29 05:41:14;;;;;;;9.07;5.63;;;23.10;65.90;;;;;;6244316;23;20112;-72
2023/05/29 05:43:40;;;;;;;8.15;6.07;;;23.30;65.80;;;;;;6244311;23;19996;-73
2023/05/29 05:46:05;;;;;;;11.13;5.90;;;23.60;64.80;;;;;;6244125;23;20004;-72
2023/05/29 05:48:31;;;;;;;9.73;5.65;;;23.80;64.70;;;;;;6244063;23;20028;-73
2023/05/29 05:50:57;;;;;;;8.35;5.40;;;23.90;64.50;;;;;;6244563;23;20418;-73
2023/05/29 05:53:22;;;;;;;10.82;5.40;;;24.00;64.20;;;;;;6244965;23;20008;-73
2023/05/29 05:55:48;;;;;;;7.57;5.32;;;24.10;63.80;;;;;;6244447;23;20001;-72
2023/05/29 05:58:13;;;;;;;11.55;6.00;;;24.30;63.60;;;;;;6244182;23;20015;-72
2023/05/29 06:00:40;;;;;;;9.60;5.72;;;24.40;63.20;;;;;;6245406;23;20012;-73
2023/05/29 06:03:06;;;;;;;13.55;5.95;;;24.50;63.40;;;;;;6246200;23;20006;-75
2023/05/29 06:05:34;;;;;;;12.93;6.43;;;24.60;63.20;;;;;;6246143;23;20027;-74
2023/05/29 06:07:59;;;;;;;9.75;5.15;;;24.80;63.20;;;;;;6245969;23;20007;-73
2023/05/29 06:10:25;;;;;;;9.98;5.45;;;25.00;62.20;;;;;;6245510;23;20390;-73
2023/05/29 06:12:52;;;;;;;14.00;5.85;;;25.20;61.50;;;;;;6246334;23;20334;-71
2023/05/29 06:15:17;;;;;;;14.57;5.60;;;25.30;61.60;;;;;;6245557;23;20334;-75
2023/05/29 06:17:43;;;;;;;9.05;5.32;;;25.40;61.70;;;;;;6219224;23;20151;-73
2023/05/29 06:20:13;;;;;;;12.50;5.55;;;25.50;61.10;;;;;;6246423;23;20008;-72
2023/05/29 06:22:39;;;;;;;10.18;4.85;;;25.70;61.00;;;;;;6246567;23;20112;-73
2023/05/29 06:25:06;;;;;;;8.73;5.30;;;26.10;60.20;;;;;;6246732;23;20000;-76
2023/05/29 06:27:31;;;;;;;9.60;5.78;;;26.00;59.70;;;;;;6246988;23;20304;-76
2023/05/29 06:29:57;;;;;;;12.40;5.38;;;26.10;59.60;;;;;;6247004;23;20000;-75
2023/05/29 06:32:23;;;;;;;8.98;5.60;;;26.10;59.70;;;;;;6247359;23;20338;-78
2023/05/29 06:34:48;;;;;;;11.07;5.43;;;26.20;59.30;;;;;;6247378;23;20027;-79
2023/05/29 06:37:14;;;;;;;10.75;5.00;;;26.30;59.00;;;;;;6246914;23;20004;-73
2023/05/29 06:39:41;;;;;;;13.88;5.32;;;26.60;59.10;;;;;;6245878;23;20008;-74
2023/05/29 06:42:08;;;;;;;9.88;5.43;;;26.70;58.60;;;;;;6246388;23;20010;-72
2023/05/29 06:44:34;;;;;;;11.23;6.13;;;26.70;58.10;;;;;;6246298;23;20012;-77
2023/05/29 06:46:59;;;;;;;9.32;5.32;;;26.70;58.30;;;;;;6246050;23;20001;-72
2023/05/29 06:49:25;;;;;;;9.63;4.68;;;26.80;58.00;;;;;;6245802;23;20000;-73
2023/05/29 06:51:51;;;;;;;13.18;5.38;;;26.70;58.20;;;;;;6246123;23;20000;-74
2023/05/29 06:54:17;;;;;;;10.60;5.20;;;26.70;57.90;;;;;;6245482;23;20100;-74
2023/05/29 06:56:42;;;;;;;11.55;5.20;;;26.70;57.60;;;;;;6245797;23;20024;-76
2023/05/29 06:59:08;;;;;;;12.73;5.20;;;26.60;57.70;;;;;;6245670;23;20074;-77
2023/05/29 07:01:34;;;;;;;7.13;5.28;;;26.50;58.10;;;;;;6245889;23;20007;-73
2023/05/29 07:04:00;;;;;;;10.55;5.30;;;26.60;58.10;;;;;;6245321;23;20058;-74
2023/05/29 07:06:25;;;;;;;12.68;5.55;;;26.70;57.70;;;;;;6219080;23;20008;-73
2023/05/29 07:08:51;;;;;;;11.85;5.28;;;26.80;57.60;;;;;;6246320;23;20031;-74
2023/05/29 07:11:17;;;;;;;10.88;5.45;;;27.00;57.30;;;;;;6218652;23;20078;-74
2023/05/29 07:13:42;;;;;;;7.57;4.78;;;27.10;56.70;;;;;;6246002;23;20003;-75
2023/05/29 07:16:08;;;;;;;13.13;4.78;;;27.10;56.50;;;;;;6244859;23;20075;-74
2023/05/29 07:18:34;;;;;;;12.45;5.63;;;27.10;55.90;;;;;;6246042;23;20080;-74
2023/05/29 07:21:01;;;;;;;16.05;5.88;;;27.20;56.10;;;;;;6245942;23;20008;-75
2023/05/29 07:23:26;;;;;;;13.95;5.50;;;27.30;56.00;;;;;;6245784;23;20433;-72
2023/05/29 07:25:52;;;;;;;10.75;5.00;;;27.50;56.20;;;;;;6245533;23;20011;-74
2023/05/29 07:28:18;;;;;;;7.03;4.80;;;27.60;55.50;;;;;;6244825;23;20004;-74
2023/05/29 07:30:43;;;;;;;10.20;5.10;;;27.70;55.40;;;;;;6245529;23;20374;-78
2023/05/29 07:33:09;;;;;;;9.32;5.68;;;27.80;55.40;;;;;;6244770;23;20020;-76
2023/05/29 07:35:35;;;;;;;10.25;4.30;;;27.80;54.80;;;;;;6245201;23;20378;-75
2023/05/29 07:38:01;;;;;;;9.88;4.55;;;27.80;54.20;;;;;;6244964;23;20035;-76
2023/05/29 07:40:27;;;;;;;9.07;4.75;;;27.70;53.80;;;;;;6245294;23;20081;-76
2023/05/29 07:42:52;;;;;;;15.48;4.90;;;27.60;53.70;;;;;;6244346;23;20004;-76
2023/05/29 07:45:18;;;;;;;36.67;6.45;;;27.60;53.50;;;;;;6244985;23;20011;-75
2023/05/29 07:47:44;;;;;;;22.65;6.88;;;27.60;53.40;;;;;;6244967;23;20008;-78
2023/05/29 07:50:10;;;;;;;14.88;6.20;;;27.70;53.20;;;;;;6245292;23;20008;-74
2023/05/29 07:52:36;;;;;;;9.52;5.13;;;27.80;53.00;;;;;;6245887;23;20044;-75
2023/05/29 07:55:02;;;;;;;10.23;4.70;;;27.80;53.10;;;;;;6245736;23;20000;-74
2023/05/29 07:57:28;;;;;;;10.38;4.82;;;27.80;53.00;;;;;;6245662;23;20079;-75
2023/05/29 07:59:54;;;;;;;11.30;5.22;;;27.80;53.10;;;;;;6245470;23;20015;-77
2023/05/29 08:02:20;;;;;;;9.73;4.90;;;27.70;53.10;;;;;;6245438;23;20016;-75
2023/05/29 08:04:46;;;;;;;8.02;4.50;;;27.50;53.40;;;;;;6245392;23;20020;-76
2023/05/29 08:07:12;;;;;;;10.18;4.40;;;27.50;53.20;;;;;;6246345;23;20054;-77
2023/05/29 08:09:38;;;;;;;6.85;4.50;;;27.50;53.40;;;;;;6219772;23;20481;-76
2023/05/29 08:12:05;;;;;;;7.90;4.50;;;27.40;53.50;;;;;;6261615;23;20016;-76
2023/05/29 08:14:31;;;;;;;7.07;4.50;;;27.40;53.80;;;;;;6269965;22;20335;-77
2023/05/29 08:16:57;;;;;;;9.02;4.95;;;27.30;54.10;;;;;;6249242;23;20004;-76
2023/05/29 08:19:23;;;;;;;7.93;5.05;;;27.30;54.30;;;;;;6245571;23;20036;-75
2023/05/29 08:21:49;;;;;;;9.13;4.80;;;27.20;54.40;;;;;;6244247;23;20020;-75
2023/05/29 08:24:15;;;;;;;7.25;5.10;;;27.20;54.70;;;;;;6217795;23;20473;-76
2023/05/29 08:26:41;;;;;;;10.95;4.72;;;27.20;54.90;;;;;;6244537;23;20004;-77
2023/05/29 08:29:06;;;;;;;9.93;5.47;;;27.20;55.30;;;;;;6244258;23;20099;-74
2023/05/29 08:31:32;;;;;;;12.38;5.15;;;27.10;54.90;;;;;;6245431;23;19996;-73
2023/05/29 08:33:58;;;;;;;11.27;5.75;;;27.00;54.90;;;;;;6245885;23;19996;-78
2023/05/29 08:36:25;;;;;;;9.68;5.30;;;27.00;55.10;;;;;;6244846;23;20011;-76
2023/05/29 08:38:51;;;;;;;8.98;5.15;;;26.90;55.10;;;;;;6245619;23;20001;-75
2023/05/29 08:41:58;;;;;;;9.13;5.05;;;26.90;55.30;;;;;;6242666;23;20097;-75
2023/05/29 08:44:24;;;;;;;14.98;5.72;;;26.90;54.40;;;;;;6192013;23;20346;-75
2023/05/29 08:46:55;;;;;;;8.15;5.75;;;26.90;55.10;;;;;;6242255;23;20000;-74
2023/05/29 08:49:22;;;;;;;9.13;5.05;;;26.90;55.40;;;;;;6244160;23;20357;-74
2023/05/29 08:51:55;;;;;;;9.18;5.57;;;26.90;55.20;;;;;;6244894;23;20050;-74
2023/05/29 08:54:21;;;;;;;8.98;5.88;;;26.90;55.50;;;;;;6244875;23;20455;-76
2023/05/29 08:56:47;;;;;;;8.93;5.18;;;26.90;55.50;;;;;;6245039;23;20058;-73
2023/05/29 08:59:14;;;;;;;10.70;5.70;;;26.90;55.20;;;;;;6217728;23;20435;-74
2023/05/29 09:01:40;;;;;;;8.63;5.20;;;26.90;55.20;;;;;;6217090;23;20012;-75
2023/05/29 09:04:05;;;;;;;13.75;6.35;;;26.80;55.00;;;;;;6243461;23;20020;-74
2023/05/29 09:06:31;;;;;;;13.93;6.97;;;26.80;55.70;;;;;;6245009;23;20007;-73
2023/05/29 09:08:57;;;;;;;21.33;8.55;;;26.80;55.20;;;;;;6244975;23;20031;-74
2023/05/29 09:11:23;;;;;;;17.80;8.32;;;26.80;55.70;;;;;;6245181;23;20010;-72
2023/05/29 09:13:49;;;;;;;11.25;6.15;;;26.80;55.60;;;;;;6245108;23;20367;-73
2023/05/29 09:16:17;;;;;;;9.60;6.15;;;26.90;55.10;;;;;;6245147;23;20011;-74
2023/05/29 09:18:45;;;;;;;13.45;7.55;;;26.90;55.10;;;;;;6244765;23;20075;-74
2023/05/29 09:21:26;;;;;;;9.38;5.88;;;26.90;55.30;;;;;;6245096;23;20034;-73
2023/05/29 09:23:54;;;;;;;19.73;8.52;;;26.90;55.10;;;;;;6244678;23;20099;-73
2023/05/29 09:26:23;;;;;;;14.15;6.47;;;26.90;55.70;;;;;;6244855;23;20007;-74
2023/05/29 09:28:49;;;;;;;13.13;6.15;;;26.90;55.20;;;;;;6245119;23;20008;-75
2023/05/29 09:31:21;;;;;;;11.30;6.25;;;26.90;54.80;;;;;;6244852;23;20004;-74
2023/05/29 09:33:48;;;;;;;10.70;6.28;;;26.90;54.20;;;;;;6244697;23;20509;-74
2023/05/29 09:36:25;;;;;;;18.00;9.00;;;27.00;54.10;;;;;;6244566;23;20330;-74
2023/05/29 09:38:51;;;;;;;13.02;7.18;;;27.10;54.20;;;;;;6244143;23;20098;-74
2023/05/29 09:41:23;;;;;;;8.20;5.50;;;27.00;53.60;;;;;;6244314;23;20430;-73
2023/05/29 09:43:50;;;;;;;11.00;5.53;;;27.00;52.70;;;;;;6244668;23;20323;-73
2023/05/29 09:46:19;;;;;;;10.18;5.47;;;27.10;53.10;;;;;;6218037;23;20012;-73
2023/05/29 09:48:46;;;;;;;17.10;8.15;;;27.10;52.70;;;;;;6244834;23;19996;-73
2023/05/29 09:51:24;;;;;;;14.18;7.03;;;27.10;54.20;;;;;;6244790;23;19996;-72
2023/05/29 09:53:53;;;;;;;7.95;5.18;;;27.10;54.30;;;;;;6245015;23;20007;-74
2023/05/29 09:56:24;;;;;;;11.82;6.07;;;27.10;54.00;;;;;;6242689;23;20000;-72
2023/05/29 09:58:53;;;;;;;11.30;6.18;;;27.20;54.30;;;;;;6244620;23;20008;-73
2023/05/29 10:01:19;;;;;;;9.10;5.82;;;27.20;54.60;;;;;;6244497;23;20091;-72
2023/05/29 10:03:45;;;;;;;7.85;5.40;;;27.30;54.40;;;;;;6244825;23;20455;-72
2023/05/29 10:06:16;;;;;;;12.77;5.85;;;27.30;53.80;;;;;;6240364;23;20009;-72
2023/05/29 10:08:50;;;;;;;14.52;6.25;;;27.30;53.60;;;;;;6244711;23;19996;-72
2023/05/29 10:11:24;;;;;;;7.88;5.57;;;27.30;53.50;;;;;;6244510;23;20071;-71
2023/05/29 10:13:52;;;;;;;10.95;5.95;;;27.40;53.60;;;;;;6244708;23;20389;-72
2023/05/29 10:16:22;;;;;;;12.18;5.60;;;27.50;53.90;;;;;;6244204;23;20066;-71
2023/05/29 10:18:57;;;;;;;13.68;7.28;;;27.60;53.80;;;;;;6244411;23;20008;-75
2023/05/29 10:21:27;;;;;;;9.52;5.10;;;27.70;53.70;;;;;;6243460;23;20022;-72
2023/05/29 10:23:54;;;;;;;8.18;5.68;;;27.80;53.40;;;;;;6244832;23;20015;-73
2023/05/29 10:26:25;;;;;;;12.68;5.80;;;27.80;52.60;;;;;;6218238;23;20015;-71
2023/05/29 10:29:01;;;;;;;16.75;7.20;;;27.80;52.40;;;;;;6246040;23;20008;-72
2023/05/29 10:31:37;;;;;;;10.20;5.80;;;27.90;53.20;;;;;;6266142;23;19997;-71
2023/05/29 10:34:28;;;;;;;7.60;5.03;;;27.90;52.70;;;;;;6260652;23;20023;-72
2023/05/29 10:37:08;;;;;;;11.05;5.57;;;28.00;51.50;;;;;;6244892;23;20358;-74
2023/05/29 10:39:34;;;;;;;12.30;5.40;;;28.00;52.10;;;;;;6245607;23;20012;-74
2023/05/29 10:42:00;;;;;;;13.35;5.80;;;28.10;52.00;;;;;;6244554;23;20008;-72
2023/05/29 10:44:32;;;;;;;9.57;5.55;;;28.10;52.40;;;;;;6244821;23;20004;-73
2023/05/29 10:47:02;;;;;;;10.73;5.50;;;28.20;52.60;;;;;;6245685;23;20434;-71
2023/05/29 10:49:29;;;;;;;11.05;5.72;;;28.30;52.60;;;;;;6246841;23;20075;-73
2023/05/29 10:51:58;;;;;;;14.35;6.45;;;28.40;52.80;;;;;;6246522;23;20044;-72
2023/05/29 10:54:25;;;;;;;10.30;6.50;;;28.40;53.10;;;;;;6246835;23;20322;-73
2023/05/29 10:57:00;;;;;;;8.88;5.25;;;28.50;53.10;;;;;;6246812;23;20008;-72
2023/05/29 10:59:27;;;;;;;10.57;6.20;;;28.50;53.00;;;;;;6219750;23;20031;-74
2023/05/29 11:01:55;;;;;;;9.85;5.03;;;28.50;52.70;;;;;;6219404;23;20016;-72
2023/05/29 11:04:20;;;;;;;9.73;6.13;;;28.40;52.50;;;;;;6246253;23;20012;-72
2023/05/29 11:06:47;;;;;;;8.80;5.40;;;28.30;52.20;;;;;;6246591;23;20010;-72
2023/05/29 11:09:49;;;;;;;9.65;6.25;;;28.30;52.60;;;;;;6246616;23;20000;-71
2023/05/29 11:12:32;;;;;;;9.25;5.78;;;28.30;51.20;;;;;;6246874;23;20054;-72
2023/05/29 11:15:06;;;;;;;10.32;5.90;;;28.30;53.00;;;;;;6245809;23;19996;-73
2023/05/29 11:17:37;;;;;;;;;;;28.40;52.30;;;;;;6247066;23;20370;-71
2023/05/29 11:20:09;;;;;;;8.77;5.93;;;28.50;51.80;;;;;;6246528;23;19908;-71
2023/05/29 11:23:00;;;;;;;17.60;6.15;;;28.50;52.60;;;;;;6246389;23;20003;-73
2023/05/29 11:25:27;;;;;;;10.70;5.68;;;28.60;52.80;;;;;;6245943;23;20004;-77
2023/05/29 11:27:52;;;;;;;11.27;5.60;;;28.60;53.10;;;;;;6244321;23;20008;-76
2023/05/29 11:30:22;;;;;;;9.98;5.82;;;28.70;53.10;;;;;;6246489;23;20008;-77
2023/05/29 11:32:49;;;;;;;10.38;5.80;;;28.70;53.00;;;;;;6245918;23;20058;-74
2023/05/29 11:35:15;;;;;;;8.13;5.43;;;28.70;53.10;;;;;;6219815;23;20012;-74
2023/05/29 11:37:46;;;;;;;8.73;5.90;;;28.70;53.00;;;;;;6246502;23;20449;-76
2023/05/29 11:40:13;;;;;;;8.70;5.80;;;28.70;53.20;;;;;;6246090;23;20012;-75
2023/05/29 11:42:46;;;;;;;8.35;5.47;;;28.60;53.70;;;;;;6219386;23;20008;-75
2023/05/29 11:45:14;;;;;;;11.77;5.60;;;28.60;53.70;;;;;;6245864;23;20014;-73
2023/05/29 11:48:01;;;;;;;10.73;6.32;;;28.50;53.40;;;;;;6246086;23;20007;-73
2023/05/29 11:50:31;;;;;;;9.60;5.90;;;28.50;53.90;;;;;;6246333;23;20042;-74
2023/05/29 11:52:58;;;;;;;10.18;5.55;;;28.50;54.20;;;;;;6246517;23;20011;-73
2023/05/29 11:55:25;;;;;;;11.98;5.35;;;28.60;54.20;;;;;;6245210;23;20004;-74
2023/05/29 11:57:57;;;;;;;6.85;4.97;;;28.60;54.30;;;;;;6245227;23;20047;-75
2023/05/29 12:00:24;;;;;;;15.02;8.23;;;28.60;53.80;;;;;;6246138;23;20379;-75
2023/05/29 12:02:51;;;;;;;13.55;8.05;;;28.60;53.60;;;;;;6246485;23;20506;-74
2023/05/29 12:05:18;;;;;;;11.10;5.40;;;28.60;55.60;;;;;;6246135;23;20039;-74
2023/05/29 12:08:04;;;;;;;12.35;5.70;;;28.60;54.20;;;;;;6245937;23;20004;-73
2023/05/29 12:10:30;;;;;;;11.15;6.30;;;28.50;54.30;;;;;;6245636;23;20010;-73
2023/05/29 12:12:58;;;;;;;13.90;5.68;;;28.40;55.00;;;;;;6245781;23;20082;-73
2023/05/29 12:15:24;;;;;;;10.73;5.85;;;28.40;54.20;;;;;;6245908;23;20004;-75
2023/05/29 12:17:51;;;;;;;9.05;5.03;;;28.40;54.90;;;;;;6245925;23;20422;-73
2023/05/29 12:20:18;;;;;;;9.70;5.07;;;28.50;54.30;;;;;;6218782;23;20394;-75
2023/05/29 12:22:45;;;;;;;9.57;5.40;;;28.60;54.90;;;;;;6245239;23;20323;-75
2023/05/29 12:25:19;;;;;;;8.35;5.38;;;28.70;54.30;;;;;;6244997;23;20066;-74
2023/05/29 12:27:47;;;;;;;9.07;4.25;;;28.70;52.70;;;;;;6218340;23;20008;-74
2023/05/29 12:30:30;;;;;;;10.23;5.90;;;28.80;53.40;;;;;;6245777;23;20000;-75
2023/05/29 12:32:56;;;;;;;9.25;4.93;;;28.90;53.60;;;;;;6246359;23;20032;-72
2023/05/29 12:35:28;;;;;;;12.13;5.00;;;28.90;53.40;;;;;;6245144;23;20000;-71
2023/05/29 12:37:54;;;;;;;11.02;5.47;;;28.90;52.90;;;;;;6254625;23;20001;-72
2023/05/29 12:40:23;;;;;;;8.50;5.32;;;28.90;53.20;;;;;;6266454;23;19996;-72
2023/05/29 12:43:02;;;;;;;8.20;4.95;;;29.00;51.20;;;;;;6226662;23;20012;-73
2023/05/29 12:45:33;;;;;;;12.90;5.28;;;29.00;50.40;;;;;;6245698;23;20027;-73
2023/05/29 12:48:05;;;;;;;8.45;5.20;;;29.10;52.30;;;;;;6245673;23;20008;-72